Aviation Digital Data Service (ADDS)

Output produced by METARs form (1246 UTC 01 July 2015)
found at http://aviationweather.gov/adds/metars/
 
KRDU 011120Z 0112/0212 23006KT 5SM BR BKN006 BKN250 
     TEMPO 0113/0114 6SM BR SCT008 
     FM011400 23008KT P6SM SCT250